»·PEaware :: N6362M KOAK-KSFO

N6362M :: KOAK-KSFO

FLIGHT INFORMATION

Flight Status: Arrived
Operator: Privately registered:
United States
More flights under this callsign
Pilot: Christian H. (16685)
Aircraft: CESSNA 172 SKYHAWK
(C172)
More flights by this aircraft type
Origin: KOAK Metro Oakland Intl
United States
Destination: KSFO San Francisco Intl
United States
More flights between these airports :: More routes between these airports
Route: +
File this flight plan on PilotEdge
Remarks:
Altitude:
(Current/Filed)
6,000ft
Speed:
(Current/Filed)
160kts
Departed: 17-May-18 09:03 AM
Arrived: 17-May-18 09:25 AM
Distance/Time
Traveled:
10nm/0:22
Distance/Time
To Go:
Arrived

Flight Plot

Page will automatically refresh every two minutes.

Flight plan parsing failed; only flown route is shown


Map Options




Map Legend


Flown Route
Filed Route
Departure Airport
Arrival Airport
Navaid (VOR, NDB)
Fix

Horizontal Profiles

Position Reports

Time Latitude Longitude Heading Altitude Ground
Speed
17-May-18 08:35 37.738557 -122.219759 286 6ft 0kts
17-May-18 08:36 37.738557 -122.219759 286 6ft 0kts
17-May-18 08:37 37.738557 -122.219759 286 6ft 0kts
17-May-18 08:38 37.738557 -122.219759 286 6ft 0kts
17-May-18 08:39 37.738557 -122.219759 286 6ft 0kts
17-May-18 08:40 37.738557 -122.219760 287 6ft 0kts
17-May-18 08:41 37.738557 -122.219760 286 6ft 0kts
17-May-18 08:42 37.738557 -122.219759 286 6ft 0kts
17-May-18 08:43 37.738557 -122.219759 286 6ft 0kts
17-May-18 08:44 37.738557 -122.219760 287 6ft 0kts
17-May-18 08:45 37.738557 -122.219760 287 6ft 0kts
17-May-18 08:46 37.738557 -122.219760 287 6ft 0kts
17-May-18 08:47 37.738557 -122.219760 287 6ft 0kts
17-May-18 08:48 37.738557 -122.219759 287 6ft 0kts
17-May-18 08:49 37.738557 -122.219759 286 6ft 0kts
17-May-18 08:50 37.738557 -122.219759 286 6ft 0kts
17-May-18 08:51 37.738557 -122.219759 286 6ft 0kts
17-May-18 08:52 37.738557 -122.219759 286 6ft 0kts
17-May-18 08:53 37.738557 -122.219759 287 6ft 0kts
17-May-18 08:54 37.738557 -122.219759 286 6ft 0kts
17-May-18 08:55 37.738557 -122.219759 286 6ft 0kts
17-May-18 08:56 37.738557 -122.219760 287 6ft 0kts
17-May-18 08:57 37.738557 -122.219760 287 6ft 0kts
17-May-18 08:58 37.738557 -122.219759 286 6ft 0kts
17-May-18 08:59 37.738557 -122.219759 286 6ft 0kts
17-May-18 09:00 37.738385 -122.220105 142 6ft 12kts
17-May-18 09:01 37.735195 -122.218021 148 6ft 26kts
17-May-18 09:02 37.729299 -122.213601 127 6ft 38kts
17-May-18 09:03 37.726184 -122.205676 121 6ft 43kts
17-May-18 09:04 37.725533 -122.204506 210 6ft 0kts
17-May-18 09:05 37.725533 -122.204506 210 6ft 0kts
17-May-18 09:06 37.725533 -122.204506 210 6ft 0kts
17-May-18 09:07 37.725533 -122.204506 210 6ft 0kts
17-May-18 09:08 37.725247 -122.204645 200 6ft 9kts
17-May-18 09:09 37.728786 -122.216933 284 457ft 63kts
17-May-18 09:10 37.735283 -122.236319 300 1345ft 81kts
17-May-18 09:11 37.741614 -122.263791 224 1174ft 108kts
17-May-18 09:12 37.722782 -122.259448 161 1403ft 94kts
17-May-18 09:13 37.699545 -122.243546 154 1179ft 122kts
17-May-18 09:14 37.675490 -122.231980 159 1041ft 96kts
17-May-18 09:15 37.654464 -122.219325 157 872ft 90kts
17-May-18 09:16 37.631508 -122.203921 171 1115ft 100kts
17-May-18 09:17 37.608245 -122.201889 220 1125ft 109kts
17-May-18 09:18 37.595615 -122.227826 233 1086ft 97kts
17-May-18 09:19 37.583094 -122.255121 225 1341ft 103kts
17-May-18 09:20 37.583509 -122.280219 294 1228ft 72kts
17-May-18 09:21 37.591647 -122.302111 289 948ft 78kts
17-May-18 09:22 37.600124 -122.324032 292 669ft 66kts
17-May-18 09:23 37.607229 -122.341890 290 322ft 55kts
17-May-18 09:24 37.613654 -122.357227 294 54ft 51kts
17-May-18 09:25 37.617701 -122.367254 299 6ft 28kts
17-May-18 09:26 37.620815 -122.374115 294 13ft 25kts
17-May-18 09:27 37.622298 -122.375526 46 16ft 0kts
17-May-18 09:28 37.622298 -122.375526 46 16ft 0kts
17-May-18 09:29 37.623950 -122.378217 298 18ft 22kts
17-May-18 09:30 37.626585 -122.383028 316 13ft 14kts

Navigation Log

Ident Type
Flight plan parsing failed, navigation log unavailable